sensor_id;sensor_type;location;lat;lon;timestamp;P1;durP1;ratioP1;P2;durP2;ratioP2
30010;SDS011;16851;53.564;8.112;2024-01-27T00:01:34;42.40;;;6.07;;
30010;SDS011;16851;53.564;8.112;2024-01-27T00:06:35;40.27;;;5.10;;
30010;SDS011;16851;53.564;8.112;2024-01-27T00:11:37;44.97;;;5.93;;
30010;SDS011;16851;53.564;8.112;2024-01-27T00:16:42;41.63;;;5.50;;
30010;SDS011;16851;53.564;8.112;2024-01-27T00:21:46;49.17;;;7.87;;
30010;SDS011;16851;53.564;8.112;2024-01-27T00:26:50;50.83;;;6.30;;
30010;SDS011;16851;53.564;8.112;2024-01-27T00:31:52;46.03;;;6.33;;
30010;SDS011;16851;53.564;8.112;2024-01-27T00:36:59;55.30;;;6.07;;
30010;SDS011;16851;53.564;8.112;2024-01-27T00:42:00;52.37;;;6.27;;
30010;SDS011;16851;53.564;8.112;2024-01-27T00:47:02;56.00;;;6.47;;
30010;SDS011;16851;53.564;8.112;2024-01-27T00:52:07;49.47;;;5.93;;
30010;SDS011;16851;53.564;8.112;2024-01-27T00:57:14;56.53;;;6.83;;
30010;SDS011;16851;53.564;8.112;2024-01-27T01:02:20;60.23;;;6.43;;
30010;SDS011;16851;53.564;8.112;2024-01-27T01:07:27;47.23;;;6.00;;
30010;SDS011;16851;53.564;8.112;2024-01-27T01:12:29;48.03;;;6.07;;
30010;SDS011;16851;53.564;8.112;2024-01-27T01:17:31;47.27;;;6.17;;
30010;SDS011;16851;53.564;8.112;2024-01-27T01:22:33;52.73;;;6.27;;
30010;SDS011;16851;53.564;8.112;2024-01-27T01:27:35;38.97;;;6.27;;
30010;SDS011;16851;53.564;8.112;2024-01-27T01:32:39;55.93;;;6.80;;
30010;SDS011;16851;53.564;8.112;2024-01-27T01:37:41;45.23;;;6.70;;
30010;SDS011;16851;53.564;8.112;2024-01-27T01:42:45;58.60;;;6.40;;
30010;SDS011;16851;53.564;8.112;2024-01-27T01:47:51;52.87;;;7.63;;
30010;SDS011;16851;53.564;8.112;2024-01-27T01:52:54;55.33;;;6.07;;
30010;SDS011;16851;53.564;8.112;2024-01-27T01:57:58;59.97;;;6.73;;
30010;SDS011;16851;53.564;8.112;2024-01-27T02:03:00;54.40;;;7.17;;
30010;SDS011;16851;53.564;8.112;2024-01-27T02:08:04;52.80;;;6.93;;
30010;SDS011;16851;53.564;8.112;2024-01-27T02:13:16;53.93;;;6.17;;
30010;SDS011;16851;53.564;8.112;2024-01-27T02:18:22;61.33;;;6.50;;
30010;SDS011;16851;53.564;8.112;2024-01-27T02:23:24;51.77;;;6.33;;
30010;SDS011;16851;53.564;8.112;2024-01-27T02:28:26;51.47;;;7.57;;
30010;SDS011;16851;53.564;8.112;2024-01-27T02:33:33;55.67;;;6.90;;
30010;SDS011;16851;53.564;8.112;2024-01-27T02:38:42;70.03;;;7.17;;
30010;SDS011;16851;53.564;8.112;2024-01-27T02:43:44;58.70;;;7.17;;
30010;SDS011;16851;53.564;8.112;2024-01-27T02:48:48;59.37;;;6.90;;
30010;SDS011;16851;53.564;8.112;2024-01-27T02:53:52;54.13;;;7.33;;
30010;SDS011;16851;53.564;8.112;2024-01-27T02:58:56;51.70;;;6.93;;
30010;SDS011;16851;53.564;8.112;2024-01-27T03:03:58;62.43;;;7.80;;
30010;SDS011;16851;53.564;8.112;2024-01-27T03:09:05;58.10;;;6.70;;
30010;SDS011;16851;53.564;8.112;2024-01-27T03:14:07;60.87;;;6.93;;
30010;SDS011;16851;53.564;8.112;2024-01-27T03:19:11;46.30;;;5.70;;
30010;SDS011;16851;53.564;8.112;2024-01-27T03:24:13;48.17;;;6.67;;
30010;SDS011;16851;53.564;8.112;2024-01-27T03:29:15;49.77;;;6.70;;
30010;SDS011;16851;53.564;8.112;2024-01-27T03:34:19;49.83;;;6.17;;
30010;SDS011;16851;53.564;8.112;2024-01-27T03:39:26;49.07;;;5.40;;
30010;SDS011;16851;53.564;8.112;2024-01-27T03:44:28;48.63;;;6.70;;
30010;SDS011;16851;53.564;8.112;2024-01-27T03:49:29;52.57;;;6.30;;
30010;SDS011;16851;53.564;8.112;2024-01-27T03:54:31;48.60;;;6.50;;
30010;SDS011;16851;53.564;8.112;2024-01-27T03:59:33;50.40;;;6.63;;
30010;SDS011;16851;53.564;8.112;2024-01-27T04:04:35;41.33;;;5.90;;
30010;SDS011;16851;53.564;8.112;2024-01-27T04:09:39;57.07;;;6.77;;
30010;SDS011;16851;53.564;8.112;2024-01-27T04:14:43;48.03;;;6.03;;
30010;SDS011;16851;53.564;8.112;2024-01-27T04:19:45;46.07;;;6.40;;
30010;SDS011;16851;53.564;8.112;2024-01-27T04:24:47;34.30;;;5.73;;
30010;SDS011;16851;53.564;8.112;2024-01-27T04:29:52;59.83;;;7.90;;
30010;SDS011;16851;53.564;8.112;2024-01-27T04:34:54;44.70;;;6.43;;
30010;SDS011;16851;53.564;8.112;2024-01-27T04:39:58;37.67;;;5.43;;
30010;SDS011;16851;53.564;8.112;2024-01-27T04:45:00;43.93;;;5.50;;
30010;SDS011;16851;53.564;8.112;2024-01-27T04:50:04;42.10;;;5.23;;
30010;SDS011;16851;53.564;8.112;2024-01-27T04:55:08;38.80;;;5.50;;
30010;SDS011;16851;53.564;8.112;2024-01-27T05:00:13;44.27;;;5.90;;
30010;SDS011;16851;53.564;8.112;2024-01-27T05:05:15;47.33;;;6.13;;
30010;SDS011;16851;53.564;8.112;2024-01-27T05:10:17;49.70;;;6.00;;
30010;SDS011;16851;53.564;8.112;2024-01-27T05:15:21;48.17;;;5.27;;
30010;SDS011;16851;53.564;8.112;2024-01-27T05:20:25;45.30;;;6.17;;
30010;SDS011;16851;53.564;8.112;2024-01-27T05:25:29;36.80;;;5.40;;
30010;SDS011;16851;53.564;8.112;2024-01-27T05:30:37;44.53;;;6.03;;
30010;SDS011;16851;53.564;8.112;2024-01-27T05:35:39;42.63;;;5.73;;
30010;SDS011;16851;53.564;8.112;2024-01-27T05:40:41;36.27;;;5.13;;
30010;SDS011;16851;53.564;8.112;2024-01-27T05:45:43;40.97;;;5.57;;
30010;SDS011;16851;53.564;8.112;2024-01-27T05:50:58;35.20;;;4.47;;
30010;SDS011;16851;53.564;8.112;2024-01-27T05:56:00;36.37;;;5.97;;
30010;SDS011;16851;53.564;8.112;2024-01-27T06:01:02;34.73;;;4.90;;
30010;SDS011;16851;53.564;8.112;2024-01-27T06:06:07;39.20;;;5.53;;
30010;SDS011;16851;53.564;8.112;2024-01-27T06:11:09;33.97;;;6.57;;
30010;SDS011;16851;53.564;8.112;2024-01-27T06:16:11;38.93;;;6.53;;
30010;SDS011;16851;53.564;8.112;2024-01-27T06:21:15;38.43;;;6.37;;
30010;SDS011;16851;53.564;8.112;2024-01-27T06:26:22;40.53;;;5.93;;
30010;SDS011;16851;53.564;8.112;2024-01-27T06:31:24;47.43;;;6.60;;
30010;SDS011;16851;53.564;8.112;2024-01-27T06:36:25;33.47;;;5.70;;
30010;SDS011;16851;53.564;8.112;2024-01-27T06:41:30;48.27;;;6.17;;
30010;SDS011;16851;53.564;8.112;2024-01-27T06:46:32;39.33;;;6.60;;
30010;SDS011;16851;53.564;8.112;2024-01-27T06:51:36;45.67;;;5.13;;
30010;SDS011;16851;53.564;8.112;2024-01-27T06:56:38;43.23;;;5.43;;
30010;SDS011;16851;53.564;8.112;2024-01-27T07:01:50;45.80;;;6.00;;
30010;SDS011;16851;53.564;8.112;2024-01-27T07:06:52;42.63;;;5.73;;
30010;SDS011;16851;53.564;8.112;2024-01-27T07:11:59;39.93;;;5.60;;
30010;SDS011;16851;53.564;8.112;2024-01-27T07:17:02;38.22;;;5.55;;
30010;SDS011;16851;53.564;8.112;2024-01-27T07:22:05;44.65;;;7.20;;
30010;SDS011;16851;53.564;8.112;2024-01-27T07:27:12;43.07;;;7.30;;
30010;SDS011;16851;53.564;8.112;2024-01-27T07:32:14;30.70;;;5.23;;
30010;SDS011;16851;53.564;8.112;2024-01-27T07:37:15;29.67;;;5.50;;
30010;SDS011;16851;53.564;8.112;2024-01-27T07:42:18;31.23;;;5.13;;
30010;SDS011;16851;53.564;8.112;2024-01-27T07:47:22;34.60;;;5.00;;
30010;SDS011;16851;53.564;8.112;2024-01-27T07:52:24;31.40;;;4.50;;
30010;SDS011;16851;53.564;8.112;2024-01-27T07:57:26;28.70;;;4.70;;
30010;SDS011;16851;53.564;8.112;2024-01-27T08:02:28;32.70;;;5.20;;
30010;SDS011;16851;53.564;8.112;2024-01-27T08:07:30;37.10;;;5.67;;
30010;SDS011;16851;53.564;8.112;2024-01-27T08:12:32;34.07;;;5.77;;
30010;SDS011;16851;53.564;8.112;2024-01-27T08:17:34;29.10;;;4.43;;
30010;SDS011;16851;53.564;8.112;2024-01-27T08:22:36;27.23;;;4.17;;
30010;SDS011;16851;53.564;8.112;2024-01-27T08:27:38;30.27;;;5.37;;
30010;SDS011;16851;53.564;8.112;2024-01-27T08:32:40;29.10;;;5.57;;
30010;SDS011;16851;53.564;8.112;2024-01-27T08:38:00;30.80;;;5.23;;
30010;SDS011;16851;53.564;8.112;2024-01-27T08:43:04;34.33;;;4.90;;
30010;SDS011;16851;53.564;8.112;2024-01-27T08:48:07;33.43;;;4.60;;
30010;SDS011;16851;53.564;8.112;2024-01-27T08:53:15;31.10;;;4.93;;
30010;SDS011;16851;53.564;8.112;2024-01-27T08:58:17;33.33;;;5.40;;
30010;SDS011;16851;53.564;8.112;2024-01-27T09:03:19;25.27;;;4.70;;
30010;SDS011;16851;53.564;8.112;2024-01-27T09:08:24;34.10;;;5.57;;
30010;SDS011;16851;53.564;8.112;2024-01-27T09:13:26;17.40;;;3.70;;
30010;SDS011;16851;53.564;8.112;2024-01-27T09:18:28;30.43;;;6.17;;
30010;SDS011;16851;53.564;8.112;2024-01-27T09:23:32;25.13;;;4.73;;
30010;SDS011;16851;53.564;8.112;2024-01-27T09:28:37;21.70;;;4.27;;
30010;SDS011;16851;53.564;8.112;2024-01-27T09:33:39;25.93;;;4.67;;
30010;SDS011;16851;53.564;8.112;2024-01-27T09:38:44;33.87;;;5.23;;
30010;SDS011;16851;53.564;8.112;2024-01-27T09:43:46;28.57;;;5.47;;
30010;SDS011;16851;53.564;8.112;2024-01-27T09:48:52;34.53;;;5.83;;
30010;SDS011;16851;53.564;8.112;2024-01-27T09:53:57;30.60;;;5.37;;
30010;SDS011;16851;53.564;8.112;2024-01-27T09:59:04;32.23;;;6.17;;
30010;SDS011;16851;53.564;8.112;2024-01-27T10:04:09;30.43;;;5.10;;
30010;SDS011;16851;53.564;8.112;2024-01-27T10:09:13;31.33;;;5.00;;
30010;SDS011;16851;53.564;8.112;2024-01-27T10:14:15;22.63;;;4.10;;
30010;SDS011;16851;53.564;8.112;2024-01-27T10:19:18;24.43;;;5.27;;
30010;SDS011;16851;53.564;8.112;2024-01-27T10:24:20;31.63;;;5.40;;
30010;SDS011;16851;53.564;8.112;2024-01-27T10:29:22;23.20;;;5.10;;
30010;SDS011;16851;53.564;8.112;2024-01-27T10:34:24;23.07;;;4.90;;
30010;SDS011;16851;53.564;8.112;2024-01-27T10:39:26;27.57;;;4.80;;
30010;SDS011;16851;53.564;8.112;2024-01-27T10:44:28;25.77;;;5.13;;
30010;SDS011;16851;53.564;8.112;2024-01-27T10:49:31;29.27;;;5.87;;
30010;SDS011;16851;53.564;8.112;2024-01-27T10:54:38;30.30;;;5.30;;
30010;SDS011;16851;53.564;8.112;2024-01-27T10:59:43;28.17;;;5.00;;
30010;SDS011;16851;53.564;8.112;2024-01-27T11:04:48;30.37;;;5.80;;
30010;SDS011;16851;53.564;8.112;2024-01-27T11:09:56;26.53;;;5.47;;
30010;SDS011;16851;53.564;8.112;2024-01-27T11:15:05;28.47;;;5.90;;
30010;SDS011;16851;53.564;8.112;2024-01-27T11:20:08;23.57;;;4.53;;
30010;SDS011;16851;53.564;8.112;2024-01-27T11:25:15;25.53;;;5.50;;
30010;SDS011;16851;53.564;8.112;2024-01-27T11:30:26;33.30;;;5.80;;
30010;SDS011;16851;53.564;8.112;2024-01-27T11:35:48;26.83;;;6.23;;
30010;SDS011;16851;53.564;8.112;2024-01-27T11:41:07;26.30;;;6.43;;
30010;SDS011;16851;53.564;8.112;2024-01-27T11:46:09;29.00;;;6.17;;
30010;SDS011;16851;53.564;8.112;2024-01-27T11:51:11;25.93;;;5.43;;
30010;SDS011;16851;53.564;8.112;2024-01-27T11:56:14;33.17;;;6.77;;
30010;SDS011;16851;53.564;8.112;2024-01-27T12:01:19;29.20;;;5.43;;
30010;SDS011;16851;53.564;8.112;2024-01-27T12:06:21;27.27;;;5.13;;
30010;SDS011;16851;53.564;8.112;2024-01-27T12:11:26;24.37;;;5.70;;
30010;SDS011;16851;53.564;8.112;2024-01-27T12:16:28;32.20;;;6.63;;
30010;SDS011;16851;53.564;8.112;2024-01-27T12:21:30;34.00;;;5.60;;
30010;SDS011;16851;53.564;8.112;2024-01-27T12:26:32;22.27;;;5.47;;
30010;SDS011;16851;53.564;8.112;2024-01-27T12:31:34;26.67;;;6.10;;
30010;SDS011;16851;53.564;8.112;2024-01-27T12:36:40;30.57;;;6.23;;
30010;SDS011;16851;53.564;8.112;2024-01-27T12:41:47;25.97;;;5.87;;
30010;SDS011;16851;53.564;8.112;2024-01-27T12:46:49;27.58;;;6.38;;
30010;SDS011;16851;53.564;8.112;2024-01-27T12:51:53;22.75;;;5.38;;
30010;SDS011;16851;53.564;8.112;2024-01-27T12:56:55;19.83;;;4.95;;
30010;SDS011;16851;53.564;8.112;2024-01-27T13:01:57;19.48;;;4.80;;
30010;SDS011;16851;53.564;8.112;2024-01-27T13:06:59;24.58;;;4.80;;
30010;SDS011;16851;53.564;8.112;2024-01-27T13:12:01;21.85;;;4.85;;
30010;SDS011;16851;53.564;8.112;2024-01-27T13:17:03;22.70;;;6.53;;
30010;SDS011;16851;53.564;8.112;2024-01-27T13:22:05;20.20;;;5.10;;
30010;SDS011;16851;53.564;8.112;2024-01-27T13:27:13;20.05;;;4.90;;
30010;SDS011;16851;53.564;8.112;2024-01-27T13:32:15;23.33;;;4.40;;
30010;SDS011;16851;53.564;8.112;2024-01-27T13:37:21;21.13;;;5.30;;
30010;SDS011;16851;53.564;8.112;2024-01-27T13:42:26;23.40;;;4.82;;
30010;SDS011;16851;53.564;8.112;2024-01-27T13:47:28;21.77;;;4.30;;
30010;SDS011;16851;53.564;8.112;2024-01-27T13:52:32;17.40;;;4.05;;
30010;SDS011;16851;53.564;8.112;2024-01-27T13:57:36;21.70;;;4.30;;
30010;SDS011;16851;53.564;8.112;2024-01-27T14:02:39;18.25;;;3.97;;
30010;SDS011;16851;53.564;8.112;2024-01-27T14:07:42;26.38;;;5.38;;
30010;SDS011;16851;53.564;8.112;2024-01-27T14:12:46;21.70;;;4.38;;
30010;SDS011;16851;53.564;8.112;2024-01-27T14:17:48;22.63;;;4.47;;
30010;SDS011;16851;53.564;8.112;2024-01-27T14:22:51;20.15;;;4.22;;
30010;SDS011;16851;53.564;8.112;2024-01-27T14:27:55;18.08;;;4.28;;
30010;SDS011;16851;53.564;8.112;2024-01-27T14:32:57;24.98;;;4.63;;
30010;SDS011;16851;53.564;8.112;2024-01-27T14:38:00;19.25;;;5.13;;
30010;SDS011;16851;53.564;8.112;2024-01-27T14:43:05;24.98;;;4.47;;
30010;SDS011;16851;53.564;8.112;2024-01-27T14:48:11;22.40;;;4.50;;
30010;SDS011;16851;53.564;8.112;2024-01-27T14:53:13;16.10;;;4.78;;
30010;SDS011;16851;53.564;8.112;2024-01-27T14:58:16;21.85;;;4.95;;
30010;SDS011;16851;53.564;8.112;2024-01-27T15:03:22;23.63;;;5.93;;
30010;SDS011;16851;53.564;8.112;2024-01-27T15:08:27;21.55;;;5.00;;
30010;SDS011;16851;53.564;8.112;2024-01-27T15:13:29;20.93;;;5.30;;
30010;SDS011;16851;53.564;8.112;2024-01-27T15:18:31;25.23;;;5.30;;
30010;SDS011;16851;53.564;8.112;2024-01-27T15:23:35;25.60;;;5.37;;
30010;SDS011;16851;53.564;8.112;2024-01-27T15:28:41;32.03;;;6.83;;
30010;SDS011;16851;53.564;8.112;2024-01-27T15:33:47;23.90;;;5.47;;
30010;SDS011;16851;53.564;8.112;2024-01-27T15:38:50;26.77;;;5.87;;
30010;SDS011;16851;53.564;8.112;2024-01-27T15:43:52;23.73;;;5.70;;
30010;SDS011;16851;53.564;8.112;2024-01-27T15:48:53;20.30;;;5.17;;
30010;SDS011;16851;53.564;8.112;2024-01-27T15:53:56;16.40;;;4.60;;
30010;SDS011;16851;53.564;8.112;2024-01-27T16:11:56;26.17;;;5.43;;
30010;SDS011;16851;53.564;8.112;2024-01-27T16:16:58;29.73;;;6.17;;
30010;SDS011;16851;53.564;8.112;2024-01-27T16:22:00;16.90;;;5.10;;
30010;SDS011;16851;53.564;8.112;2024-01-27T16:27:04;29.70;;;7.80;;
30010;SDS011;16851;53.564;8.112;2024-01-27T16:32:06;23.83;;;6.80;;
30010;SDS011;16851;53.564;8.112;2024-01-27T16:37:11;26.80;;;7.40;;
30010;SDS011;16851;53.564;8.112;2024-01-27T16:42:13;28.83;;;7.27;;
30010;SDS011;16851;53.564;8.112;2024-01-27T16:47:15;24.63;;;7.10;;
30010;SDS011;16851;53.564;8.112;2024-01-27T16:52:20;26.10;;;6.97;;
30010;SDS011;16851;53.564;8.112;2024-01-27T16:57:28;32.50;;;7.60;;
30010;SDS011;16851;53.564;8.112;2024-01-27T17:02:32;30.20;;;7.77;;
30010;SDS011;16851;53.564;8.112;2024-01-27T17:07:36;27.07;;;8.03;;
30010;SDS011;16851;53.564;8.112;2024-01-27T17:12:39;25.47;;;8.10;;
30010;SDS011;16851;53.564;8.112;2024-01-27T17:17:43;32.60;;;8.33;;
30010;SDS011;16851;53.564;8.112;2024-01-27T17:22:45;25.27;;;6.97;;
30010;SDS011;16851;53.564;8.112;2024-01-27T17:27:47;29.70;;;8.93;;
30010;SDS011;16851;53.564;8.112;2024-01-27T17:32:49;32.67;;;8.53;;
30010;SDS011;16851;53.564;8.112;2024-01-27T17:37:51;30.67;;;8.23;;
30010;SDS011;16851;53.564;8.112;2024-01-27T17:42:54;25.33;;;8.20;;
30010;SDS011;16851;53.564;8.112;2024-01-27T17:48:03;30.73;;;7.97;;
30010;SDS011;16851;53.564;8.112;2024-01-27T17:53:05;21.30;;;7.57;;
30010;SDS011;16851;53.564;8.112;2024-01-27T17:58:08;23.77;;;6.37;;
30010;SDS011;16851;53.564;8.112;2024-01-27T18:03:10;26.23;;;6.70;;
30010;SDS011;16851;53.564;8.112;2024-01-27T18:08:12;27.97;;;6.97;;
30010;SDS011;16851;53.564;8.112;2024-01-27T18:13:14;22.00;;;6.50;;
30010;SDS011;16851;53.564;8.112;2024-01-27T18:18:20;31.13;;;7.30;;
30010;SDS011;16851;53.564;8.112;2024-01-27T18:23:25;25.33;;;6.63;;
30010;SDS011;16851;53.564;8.112;2024-01-27T18:28:27;23.83;;;6.43;;
30010;SDS011;16851;53.564;8.112;2024-01-27T18:33:29;26.43;;;6.80;;
30010;SDS011;16851;53.564;8.112;2024-01-27T18:38:35;31.40;;;8.63;;
30010;SDS011;16851;53.564;8.112;2024-01-27T18:43:40;30.37;;;7.23;;
30010;SDS011;16851;53.564;8.112;2024-01-27T18:48:42;22.87;;;7.13;;
30010;SDS011;16851;53.564;8.112;2024-01-27T18:53:53;26.57;;;7.70;;
30010;SDS011;16851;53.564;8.112;2024-01-27T18:58:57;26.17;;;8.33;;
30010;SDS011;16851;53.564;8.112;2024-01-27T19:04:01;25.07;;;7.10;;
30010;SDS011;16851;53.564;8.112;2024-01-27T19:09:05;31.67;;;6.73;;
30010;SDS011;16851;53.564;8.112;2024-01-27T19:14:08;32.00;;;8.90;;
30010;SDS011;16851;53.564;8.112;2024-01-27T19:19:12;31.47;;;9.37;;
30010;SDS011;16851;53.564;8.112;2024-01-27T19:24:16;30.27;;;8.00;;
30010;SDS011;16851;53.564;8.112;2024-01-27T19:29:26;21.73;;;7.60;;
30010;SDS011;16851;53.564;8.112;2024-01-27T19:34:30;29.13;;;9.57;;
30010;SDS011;16851;53.564;8.112;2024-01-27T19:39:39;31.77;;;9.57;;
30010;SDS011;16851;53.564;8.112;2024-01-27T19:44:44;32.33;;;9.17;;
30010;SDS011;16851;53.564;8.112;2024-01-27T19:49:45;29.10;;;8.97;;
30010;SDS011;16851;53.564;8.112;2024-01-27T19:54:51;30.63;;;8.53;;
30010;SDS011;16851;53.564;8.112;2024-01-27T19:59:52;26.17;;;8.17;;
30010;SDS011;16851;53.564;8.112;2024-01-27T20:04:57;23.53;;;6.90;;
30010;SDS011;16851;53.564;8.112;2024-01-27T20:09:59;27.83;;;7.00;;
30010;SDS011;16851;53.564;8.112;2024-01-27T20:15:04;29.63;;;7.73;;
30010;SDS011;16851;53.564;8.112;2024-01-27T20:20:09;31.63;;;8.10;;
30010;SDS011;16851;53.564;8.112;2024-01-27T20:25:11;29.03;;;7.67;;
30010;SDS011;16851;53.564;8.112;2024-01-27T20:30:15;36.37;;;9.13;;
30010;SDS011;16851;53.564;8.112;2024-01-27T20:35:20;27.43;;;8.30;;
30010;SDS011;16851;53.564;8.112;2024-01-27T20:40:25;24.43;;;10.07;;
30010;SDS011;16851;53.564;8.112;2024-01-27T20:45:30;31.40;;;10.20;;
30010;SDS011;16851;53.564;8.112;2024-01-27T20:50:32;33.50;;;9.87;;
30010;SDS011;16851;53.564;8.112;2024-01-27T20:55:34;27.20;;;9.70;;
30010;SDS011;16851;53.564;8.112;2024-01-27T21:00:38;32.27;;;11.53;;
30010;SDS011;16851;53.564;8.112;2024-01-27T21:05:43;24.93;;;9.63;;
30010;SDS011;16851;53.564;8.112;2024-01-27T21:10:45;28.47;;;8.90;;
30010;SDS011;16851;53.564;8.112;2024-01-27T21:15:47;24.40;;;9.57;;
30010;SDS011;16851;53.564;8.112;2024-01-27T21:20:54;29.47;;;9.77;;
30010;SDS011;16851;53.564;8.112;2024-01-27T21:25:56;25.90;;;9.63;;
30010;SDS011;16851;53.564;8.112;2024-01-27T21:31:00;30.30;;;9.63;;
30010;SDS011;16851;53.564;8.112;2024-01-27T21:36:02;24.43;;;9.63;;
30010;SDS011;16851;53.564;8.112;2024-01-27T21:41:04;28.00;;;9.63;;
30010;SDS011;16851;53.564;8.112;2024-01-27T21:46:06;27.23;;;9.67;;
30010;SDS011;16851;53.564;8.112;2024-01-27T21:51:09;30.83;;;11.60;;
30010;SDS011;16851;53.564;8.112;2024-01-27T21:56:11;28.00;;;10.37;;
30010;SDS011;16851;53.564;8.112;2024-01-27T22:01:16;33.90;;;10.80;;
30010;SDS011;16851;53.564;8.112;2024-01-27T22:06:17;27.63;;;10.60;;
30010;SDS011;16851;53.564;8.112;2024-01-27T22:11:22;28.60;;;10.97;;
30010;SDS011;16851;53.564;8.112;2024-01-27T22:16:23;26.43;;;10.93;;
30010;SDS011;16851;53.564;8.112;2024-01-27T22:21:27;33.83;;;11.80;;
30010;SDS011;16851;53.564;8.112;2024-01-27T22:26:34;25.80;;;10.43;;
30010;SDS011;16851;53.564;8.112;2024-01-27T22:31:36;28.20;;;11.27;;
30010;SDS011;16851;53.564;8.112;2024-01-27T22:36:41;27.40;;;12.17;;
30010;SDS011;16851;53.564;8.112;2024-01-27T22:41:43;39.03;;;11.33;;
30010;SDS011;16851;53.564;8.112;2024-01-27T22:46:45;31.10;;;11.27;;
30010;SDS011;16851;53.564;8.112;2024-01-27T22:51:46;34.83;;;12.13;;
30010;SDS011;16851;53.564;8.112;2024-01-27T22:56:50;30.80;;;11.30;;
30010;SDS011;16851;53.564;8.112;2024-01-27T23:01:52;29.00;;;11.53;;
30010;SDS011;16851;53.564;8.112;2024-01-27T23:06:57;34.33;;;11.60;;
30010;SDS011;16851;53.564;8.112;2024-01-27T23:11:59;27.57;;;11.47;;
30010;SDS011;16851;53.564;8.112;2024-01-27T23:17:00;28.60;;;12.50;;
30010;SDS011;16851;53.564;8.112;2024-01-27T23:22:02;36.20;;;13.07;;
30010;SDS011;16851;53.564;8.112;2024-01-27T23:27:04;36.97;;;12.57;;
30010;SDS011;16851;53.564;8.112;2024-01-27T23:32:06;34.50;;;13.60;;
30010;SDS011;16851;53.564;8.112;2024-01-27T23:37:08;32.57;;;12.33;;
30010;SDS011;16851;53.564;8.112;2024-01-27T23:42:13;35.53;;;13.00;;
30010;SDS011;16851;53.564;8.112;2024-01-27T23:47:14;35.53;;;13.53;;
30010;SDS011;16851;53.564;8.112;2024-01-27T23:52:16;32.07;;;12.23;;
30010;SDS011;16851;53.564;8.112;2024-01-27T23:57:19;36.13;;;13.87;;
